sensor_id;sensor_type;location;lat;lon;timestamp;P1;durP1;ratioP1;P2;durP2;ratioP2
52838;SDS011;39219;53.678;9.856;2024-01-30T00:00:44;16.85;;;9.07;;
52838;SDS011;39219;53.678;9.856;2024-01-30T00:03:10;16.17;;;8.77;;
52838;SDS011;39219;53.678;9.856;2024-01-30T00:05:36;16.25;;;9.52;;
52838;SDS011;39219;53.678;9.856;2024-01-30T00:08:05;16.88;;;9.93;;
52838;SDS011;39219;53.678;9.856;2024-01-30T00:10:32;20.30;;;9.52;;
52838;SDS011;39219;53.678;9.856;2024-01-30T00:12:58;17.40;;;9.50;;
52838;SDS011;39219;53.678;9.856;2024-01-30T00:15:25;16.15;;;9.43;;
52838;SDS011;39219;53.678;9.856;2024-01-30T00:17:51;19.60;;;8.95;;
52838;SDS011;39219;53.678;9.856;2024-01-30T00:20:18;17.75;;;9.73;;
52838;SDS011;39219;53.678;9.856;2024-01-30T00:22:44;17.95;;;9.77;;
52838;SDS011;39219;53.678;9.856;2024-01-30T00:25:12;17.25;;;9.40;;
52838;SDS011;39219;53.678;9.856;2024-01-30T00:27:39;18.35;;;9.90;;
52838;SDS011;39219;53.678;9.856;2024-01-30T00:30:06;18.25;;;10.30;;
52838;SDS011;39219;53.678;9.856;2024-01-30T00:32:33;21.17;;;11.10;;
52838;SDS011;39219;53.678;9.856;2024-01-30T00:35:00;18.55;;;10.40;;
52838;SDS011;39219;53.678;9.856;2024-01-30T00:37:26;19.52;;;10.35;;
52838;SDS011;39219;53.678;9.856;2024-01-30T00:39:53;17.77;;;10.25;;
52838;SDS011;39219;53.678;9.856;2024-01-30T00:42:20;19.35;;;10.25;;
52838;SDS011;39219;53.678;9.856;2024-01-30T00:44:48;18.58;;;9.90;;
52838;SDS011;39219;53.678;9.856;2024-01-30T00:47:15;17.27;;;9.90;;
52838;SDS011;39219;53.678;9.856;2024-01-30T00:49:41;16.58;;;9.13;;
52838;SDS011;39219;53.678;9.856;2024-01-30T00:52:08;18.38;;;9.52;;
52838;SDS011;39219;53.678;9.856;2024-01-30T00:54:34;18.60;;;10.10;;
52838;SDS011;39219;53.678;9.856;2024-01-30T00:57:01;20.23;;;10.65;;
52838;SDS011;39219;53.678;9.856;2024-01-30T00:59:28;15.13;;;9.00;;
52838;SDS011;39219;53.678;9.856;2024-01-30T01:01:55;16.30;;;9.05;;
52838;SDS011;39219;53.678;9.856;2024-01-30T01:04:21;18.75;;;9.00;;
52838;SDS011;39219;53.678;9.856;2024-01-30T01:06:48;15.48;;;8.63;;
52838;SDS011;39219;53.678;9.856;2024-01-30T01:09:15;13.75;;;8.00;;
52838;SDS011;39219;53.678;9.856;2024-01-30T01:11:41;14.73;;;8.98;;
52838;SDS011;39219;53.678;9.856;2024-01-30T01:14:08;15.93;;;8.65;;
52838;SDS011;39219;53.678;9.856;2024-01-30T01:16:35;13.00;;;8.07;;
52838;SDS011;39219;53.678;9.856;2024-01-30T01:19:02;14.60;;;8.50;;
52838;SDS011;39219;53.678;9.856;2024-01-30T01:21:29;13.95;;;8.48;;
52838;SDS011;39219;53.678;9.856;2024-01-30T01:23:56;18.55;;;9.38;;
52838;SDS011;39219;53.678;9.856;2024-01-30T01:26:22;16.85;;;9.45;;
52838;SDS011;39219;53.678;9.856;2024-01-30T01:28:48;18.88;;;9.98;;
52838;SDS011;39219;53.678;9.856;2024-01-30T01:31:15;19.45;;;10.63;;
52838;SDS011;39219;53.678;9.856;2024-01-30T01:33:44;18.33;;;9.93;;
52838;SDS011;39219;53.678;9.856;2024-01-30T01:36:10;14.60;;;9.02;;
52838;SDS011;39219;53.678;9.856;2024-01-30T01:38:37;18.98;;;10.52;;
52838;SDS011;39219;53.678;9.856;2024-01-30T01:41:03;18.15;;;9.68;;
52838;SDS011;39219;53.678;9.856;2024-01-30T01:43:30;15.65;;;9.02;;
52838;SDS011;39219;53.678;9.856;2024-01-30T01:45:56;13.60;;;8.38;;
52838;SDS011;39219;53.678;9.856;2024-01-30T01:48:23;14.95;;;8.30;;
52838;SDS011;39219;53.678;9.856;2024-01-30T01:50:50;16.85;;;8.85;;
52838;SDS011;39219;53.678;9.856;2024-01-30T01:53:18;15.52;;;8.48;;
52838;SDS011;39219;53.678;9.856;2024-01-30T01:55:45;14.77;;;8.60;;
52838;SDS011;39219;53.678;9.856;2024-01-30T01:58:12;14.98;;;8.57;;
52838;SDS011;39219;53.678;9.856;2024-01-30T02:00:38;17.85;;;10.00;;
52838;SDS011;39219;53.678;9.856;2024-01-30T02:03:06;19.15;;;10.45;;
52838;SDS011;39219;53.678;9.856;2024-01-30T02:05:36;19.63;;;10.30;;
52838;SDS011;39219;53.678;9.856;2024-01-30T02:08:04;19.20;;;10.10;;
52838;SDS011;39219;53.678;9.856;2024-01-30T02:10:31;17.17;;;10.10;;
52838;SDS011;39219;53.678;9.856;2024-01-30T02:12:58;16.20;;;9.85;;
52838;SDS011;39219;53.678;9.856;2024-01-30T02:15:24;19.75;;;10.35;;
52838;SDS011;39219;53.678;9.856;2024-01-30T02:17:51;18.42;;;9.52;;
52838;SDS011;39219;53.678;9.856;2024-01-30T02:20:17;18.95;;;10.00;;
52838;SDS011;39219;53.678;9.856;2024-01-30T02:22:45;18.75;;;10.35;;
52838;SDS011;39219;53.678;9.856;2024-01-30T02:25:13;17.83;;;10.05;;
52838;SDS011;39219;53.678;9.856;2024-01-30T02:27:39;15.23;;;8.32;;
52838;SDS011;39219;53.678;9.856;2024-01-30T02:30:06;21.40;;;10.07;;
52838;SDS011;39219;53.678;9.856;2024-01-30T02:32:33;15.85;;;9.25;;
52838;SDS011;39219;53.678;9.856;2024-01-30T02:34:59;16.67;;;9.30;;
52838;SDS011;39219;53.678;9.856;2024-01-30T02:37:26;15.65;;;8.85;;
52838;SDS011;39219;53.678;9.856;2024-01-30T02:39:54;16.55;;;9.63;;
52838;SDS011;39219;53.678;9.856;2024-01-30T02:42:20;16.48;;;9.32;;
52838;SDS011;39219;53.678;9.856;2024-01-30T02:44:47;16.77;;;9.48;;
52838;SDS011;39219;53.678;9.856;2024-01-30T02:47:13;17.08;;;9.40;;
52838;SDS011;39219;53.678;9.856;2024-01-30T02:49:40;16.83;;;9.70;;
52838;SDS011;39219;53.678;9.856;2024-01-30T02:52:06;18.25;;;10.27;;
52838;SDS011;39219;53.678;9.856;2024-01-30T02:54:32;18.63;;;10.63;;
52838;SDS011;39219;53.678;9.856;2024-01-30T02:57:00;17.23;;;9.68;;
52838;SDS011;39219;53.678;9.856;2024-01-30T02:59:27;17.40;;;9.77;;
52838;SDS011;39219;53.678;9.856;2024-01-30T03:01:53;17.75;;;9.73;;
52838;SDS011;39219;53.678;9.856;2024-01-30T03:04:19;16.27;;;9.68;;
52838;SDS011;39219;53.678;9.856;2024-01-30T03:06:46;16.90;;;10.02;;
52838;SDS011;39219;53.678;9.856;2024-01-30T03:09:12;17.33;;;9.48;;
52838;SDS011;39219;53.678;9.856;2024-01-30T03:11:39;17.80;;;9.75;;
52838;SDS011;39219;53.678;9.856;2024-01-30T03:14:07;20.00;;;10.18;;
52838;SDS011;39219;53.678;9.856;2024-01-30T03:16:36;17.45;;;9.80;;
52838;SDS011;39219;53.678;9.856;2024-01-30T03:19:02;17.15;;;9.48;;
52838;SDS011;39219;53.678;9.856;2024-01-30T03:21:29;15.73;;;9.57;;
52838;SDS011;39219;53.678;9.856;2024-01-30T03:23:55;17.40;;;10.05;;
52838;SDS011;39219;53.678;9.856;2024-01-30T03:26:22;16.98;;;9.52;;
52838;SDS011;39219;53.678;9.856;2024-01-30T03:28:48;18.00;;;10.00;;
52838;SDS011;39219;53.678;9.856;2024-01-30T03:31:16;15.75;;;9.05;;
52838;SDS011;39219;53.678;9.856;2024-01-30T03:33:42;17.02;;;9.50;;
52838;SDS011;39219;53.678;9.856;2024-01-30T03:36:09;19.20;;;9.80;;
52838;SDS011;39219;53.678;9.856;2024-01-30T03:38:35;15.73;;;8.98;;
52838;SDS011;39219;53.678;9.856;2024-01-30T03:41:02;17.77;;;10.30;;
52838;SDS011;39219;53.678;9.856;2024-01-30T03:43:29;18.33;;;10.13;;
52838;SDS011;39219;53.678;9.856;2024-01-30T03:45:55;17.20;;;9.70;;
52838;SDS011;39219;53.678;9.856;2024-01-30T03:48:23;18.08;;;10.13;;
52838;SDS011;39219;53.678;9.856;2024-01-30T03:50:50;20.27;;;11.07;;
52838;SDS011;39219;53.678;9.856;2024-01-30T03:53:17;18.35;;;9.82;;
52838;SDS011;39219;53.678;9.856;2024-01-30T03:55:43;16.67;;;9.68;;
52838;SDS011;39219;53.678;9.856;2024-01-30T03:58:10;17.20;;;10.00;;
52838;SDS011;39219;53.678;9.856;2024-01-30T04:00:36;18.38;;;10.00;;
52838;SDS011;39219;53.678;9.856;2024-01-30T04:03:03;14.55;;;8.75;;
52838;SDS011;39219;53.678;9.856;2024-01-30T04:05:31;14.35;;;9.05;;
52838;SDS011;39219;53.678;9.856;2024-01-30T04:07:58;16.52;;;9.27;;
52838;SDS011;39219;53.678;9.856;2024-01-30T04:10:24;18.10;;;9.38;;
52838;SDS011;39219;53.678;9.856;2024-01-30T04:12:51;16.88;;;9.45;;
52838;SDS011;39219;53.678;9.856;2024-01-30T04:15:19;17.08;;;9.52;;
52838;SDS011;39219;53.678;9.856;2024-01-30T04:17:45;16.20;;;9.73;;
52838;SDS011;39219;53.678;9.856;2024-01-30T04:20:13;17.48;;;9.45;;
52838;SDS011;39219;53.678;9.856;2024-01-30T04:22:42;20.10;;;9.85;;
52838;SDS011;39219;53.678;9.856;2024-01-30T04:25:09;17.70;;;9.65;;
52838;SDS011;39219;53.678;9.856;2024-01-30T04:27:35;18.02;;;9.63;;
52838;SDS011;39219;53.678;9.856;2024-01-30T04:30:02;17.58;;;9.77;;
52838;SDS011;39219;53.678;9.856;2024-01-30T04:32:28;17.23;;;9.57;;
52838;SDS011;39219;53.678;9.856;2024-01-30T04:34:55;15.30;;;8.55;;
52838;SDS011;39219;53.678;9.856;2024-01-30T04:37:21;17.00;;;9.30;;
52838;SDS011;39219;53.678;9.856;2024-01-30T04:39:49;19.02;;;9.80;;
52838;SDS011;39219;53.678;9.856;2024-01-30T04:42:16;16.10;;;9.52;;
52838;SDS011;39219;53.678;9.856;2024-01-30T04:44:42;15.65;;;9.45;;
52838;SDS011;39219;53.678;9.856;2024-01-30T04:47:09;17.38;;;9.82;;
52838;SDS011;39219;53.678;9.856;2024-01-30T04:49:38;18.67;;;9.57;;
52838;SDS011;39219;53.678;9.856;2024-01-30T04:52:04;18.08;;;9.95;;
52838;SDS011;39219;53.678;9.856;2024-01-30T04:54:31;16.75;;;9.27;;
52838;SDS011;39219;53.678;9.856;2024-01-30T04:56:59;16.25;;;9.30;;
52838;SDS011;39219;53.678;9.856;2024-01-30T04:59:26;18.15;;;9.80;;
52838;SDS011;39219;53.678;9.856;2024-01-30T05:01:52;19.27;;;9.65;;
52838;SDS011;39219;53.678;9.856;2024-01-30T05:04:19;15.45;;;9.20;;
52838;SDS011;39219;53.678;9.856;2024-01-30T05:06:45;17.52;;;9.45;;
52838;SDS011;39219;53.678;9.856;2024-01-30T05:09:12;16.58;;;9.05;;
52838;SDS011;39219;53.678;9.856;2024-01-30T05:11:38;15.80;;;9.15;;
52838;SDS011;39219;53.678;9.856;2024-01-30T05:14:07;15.07;;;8.90;;
52838;SDS011;39219;53.678;9.856;2024-01-30T05:16:34;16.92;;;9.57;;
52838;SDS011;39219;53.678;9.856;2024-01-30T05:19:01;16.40;;;9.80;;
52838;SDS011;39219;53.678;9.856;2024-01-30T05:21:27;15.95;;;9.55;;
52838;SDS011;39219;53.678;9.856;2024-01-30T05:23:54;16.73;;;9.90;;
52838;SDS011;39219;53.678;9.856;2024-01-30T05:26:20;17.08;;;9.95;;
52838;SDS011;39219;53.678;9.856;2024-01-30T05:28:47;16.25;;;9.68;;
52838;SDS011;39219;53.678;9.856;2024-01-30T05:31:15;16.88;;;9.85;;
52838;SDS011;39219;53.678;9.856;2024-01-30T05:33:42;14.52;;;8.95;;
52838;SDS011;39219;53.678;9.856;2024-01-30T05:36:11;18.33;;;9.73;;
52838;SDS011;39219;53.678;9.856;2024-01-30T05:38:37;15.50;;;9.25;;
52838;SDS011;39219;53.678;9.856;2024-01-30T05:41:04;14.77;;;9.13;;
52838;SDS011;39219;53.678;9.856;2024-01-30T05:43:30;16.88;;;9.02;;
52838;SDS011;39219;53.678;9.856;2024-01-30T05:45:57;16.35;;;9.43;;
52838;SDS011;39219;53.678;9.856;2024-01-30T05:48:25;15.73;;;9.23;;
52838;SDS011;39219;53.678;9.856;2024-01-30T05:50:51;17.20;;;9.75;;
52838;SDS011;39219;53.678;9.856;2024-01-30T05:53:18;17.08;;;9.52;;
52838;SDS011;39219;53.678;9.856;2024-01-30T05:55:44;17.80;;;10.20;;
52838;SDS011;39219;53.678;9.856;2024-01-30T05:58:11;16.90;;;10.00;;
52838;SDS011;39219;53.678;9.856;2024-01-30T06:00:37;17.27;;;9.65;;
52838;SDS011;39219;53.678;9.856;2024-01-30T06:03:04;15.13;;;9.82;;
52838;SDS011;39219;53.678;9.856;2024-01-30T06:05:32;16.48;;;9.98;;
52838;SDS011;39219;53.678;9.856;2024-01-30T06:07:58;16.30;;;9.80;;
52838;SDS011;39219;53.678;9.856;2024-01-30T06:10:24;17.63;;;10.30;;
52838;SDS011;39219;53.678;9.856;2024-01-30T06:12:51;17.63;;;9.75;;
52838;SDS011;39219;53.678;9.856;2024-01-30T06:15:17;17.88;;;10.48;;
52838;SDS011;39219;53.678;9.856;2024-01-30T06:17:44;20.05;;;10.82;;
52838;SDS011;39219;53.678;9.856;2024-01-30T06:20:10;19.08;;;11.30;;
52838;SDS011;39219;53.678;9.856;2024-01-30T06:22:38;21.58;;;11.40;;
52838;SDS011;39219;53.678;9.856;2024-01-30T06:25:05;18.02;;;11.10;;
52838;SDS011;39219;53.678;9.856;2024-01-30T06:27:31;19.50;;;11.32;;
52838;SDS011;39219;53.678;9.856;2024-01-30T06:29:58;19.80;;;11.15;;
52838;SDS011;39219;53.678;9.856;2024-01-30T06:32:24;19.33;;;11.13;;
52838;SDS011;39219;53.678;9.856;2024-01-30T06:34:52;23.05;;;11.57;;
52838;SDS011;39219;53.678;9.856;2024-01-30T06:37:18;18.92;;;11.40;;
52838;SDS011;39219;53.678;9.856;2024-01-30T06:39:46;20.15;;;11.45;;
52838;SDS011;39219;53.678;9.856;2024-01-30T06:42:13;18.70;;;11.20;;
52838;SDS011;39219;53.678;9.856;2024-01-30T06:44:39;19.52;;;11.48;;
52838;SDS011;39219;53.678;9.856;2024-01-30T06:47:05;20.80;;;11.27;;
52838;SDS011;39219;53.678;9.856;2024-01-30T06:49:32;21.20;;;11.02;;
52838;SDS011;39219;53.678;9.856;2024-01-30T06:51:58;19.65;;;10.00;;
52838;SDS011;39219;53.678;9.856;2024-01-30T06:54:25;15.27;;;9.93;;
52838;SDS011;39219;53.678;9.856;2024-01-30T06:56:52;18.27;;;10.13;;
52838;SDS011;39219;53.678;9.856;2024-01-30T06:59:19;18.10;;;10.48;;
52838;SDS011;39219;53.678;9.856;2024-01-30T07:01:45;18.38;;;10.38;;
52838;SDS011;39219;53.678;9.856;2024-01-30T07:04:12;18.17;;;10.70;;
52838;SDS011;39219;53.678;9.856;2024-01-30T07:06:38;20.25;;;11.25;;
52838;SDS011;39219;53.678;9.856;2024-01-30T07:09:05;23.38;;;11.30;;
52838;SDS011;39219;53.678;9.856;2024-01-30T07:11:31;18.65;;;11.23;;
52838;SDS011;39219;53.678;9.856;2024-01-30T07:13:59;18.48;;;11.30;;
52838;SDS011;39219;53.678;9.856;2024-01-30T07:16:28;17.40;;;10.50;;
52838;SDS011;39219;53.678;9.856;2024-01-30T07:18:55;19.60;;;10.98;;
52838;SDS011;39219;53.678;9.856;2024-01-30T07:21:21;18.02;;;10.88;;
52838;SDS011;39219;53.678;9.856;2024-01-30T07:23:52;18.70;;;10.75;;
52838;SDS011;39219;53.678;9.856;2024-01-30T07:26:19;17.98;;;11.13;;
52838;SDS011;39219;53.678;9.856;2024-01-30T07:28:45;19.73;;;11.90;;
52838;SDS011;39219;53.678;9.856;2024-01-30T07:31:14;18.77;;;11.60;;
52838;SDS011;39219;53.678;9.856;2024-01-30T07:33:41;18.67;;;11.00;;
52838;SDS011;39219;53.678;9.856;2024-01-30T07:36:07;20.83;;;11.32;;
52838;SDS011;39219;53.678;9.856;2024-01-30T07:38:35;20.08;;;11.75;;
52838;SDS011;39219;53.678;9.856;2024-01-30T07:41:02;18.00;;;10.82;;
52838;SDS011;39219;53.678;9.856;2024-01-30T07:43:28;18.92;;;10.88;;
52838;SDS011;39219;53.678;9.856;2024-01-30T07:45:55;19.17;;;11.60;;
52838;SDS011;39219;53.678;9.856;2024-01-30T07:48:22;21.95;;;12.77;;
52838;SDS011;39219;53.678;9.856;2024-01-30T07:50:49;21.58;;;11.77;;
52838;SDS011;39219;53.678;9.856;2024-01-30T07:53:15;21.10;;;11.13;;
52838;SDS011;39219;53.678;9.856;2024-01-30T07:56:30;18.70;;;11.57;;
52838;SDS011;39219;53.678;9.856;2024-01-30T07:58:39;20.08;;;11.07;;
52838;SDS011;39219;53.678;9.856;2024-01-30T08:01:05;20.75;;;11.50;;
52838;SDS011;39219;53.678;9.856;2024-01-30T08:03:33;21.92;;;11.70;;
52838;SDS011;39219;53.678;9.856;2024-01-30T08:05:59;19.92;;;11.40;;
52838;SDS011;39219;53.678;9.856;2024-01-30T08:08:26;22.42;;;11.50;;
52838;SDS011;39219;53.678;9.856;2024-01-30T08:10:53;21.27;;;11.90;;
52838;SDS011;39219;53.678;9.856;2024-01-30T08:13:19;22.02;;;12.00;;
52838;SDS011;39219;53.678;9.856;2024-01-30T08:15:46;20.05;;;11.88;;
52838;SDS011;39219;53.678;9.856;2024-01-30T08:18:12;19.92;;;12.10;;
52838;SDS011;39219;53.678;9.856;2024-01-30T08:20:40;20.63;;;12.10;;
52838;SDS011;39219;53.678;9.856;2024-01-30T08:23:06;21.55;;;12.52;;
52838;SDS011;39219;53.678;9.856;2024-01-30T08:25:34;20.13;;;12.05;;
52838;SDS011;39219;53.678;9.856;2024-01-30T08:28:01;22.10;;;12.40;;
52838;SDS011;39219;53.678;9.856;2024-01-30T08:30:28;23.33;;;12.98;;
52838;SDS011;39219;53.678;9.856;2024-01-30T08:32:54;21.23;;;12.82;;
52838;SDS011;39219;53.678;9.856;2024-01-30T08:35:21;22.83;;;12.82;;
52838;SDS011;39219;53.678;9.856;2024-01-30T08:37:48;22.20;;;13.10;;
52838;SDS011;39219;53.678;9.856;2024-01-30T08:40:15;20.90;;;12.13;;
52838;SDS011;39219;53.678;9.856;2024-01-30T08:42:41;22.95;;;12.57;;
52838;SDS011;39219;53.678;9.856;2024-01-30T08:45:08;23.27;;;12.80;;
52838;SDS011;39219;53.678;9.856;2024-01-30T08:47:35;22.50;;;12.75;;
52838;SDS011;39219;53.678;9.856;2024-01-30T08:50:02;23.75;;;12.68;;
52838;SDS011;39219;53.678;9.856;2024-01-30T08:52:29;20.52;;;12.25;;
52838;SDS011;39219;53.678;9.856;2024-01-30T08:54:56;21.23;;;12.75;;
52838;SDS011;39219;53.678;9.856;2024-01-30T08:57:23;22.70;;;13.00;;
52838;SDS011;39219;53.678;9.856;2024-01-30T08:59:49;23.95;;;12.43;;
52838;SDS011;39219;53.678;9.856;2024-01-30T09:02:16;22.73;;;13.05;;
52838;SDS011;39219;53.678;9.856;2024-01-30T09:04:43;20.25;;;11.90;;
52838;SDS011;39219;53.678;9.856;2024-01-30T09:07:09;21.08;;;12.02;;
52838;SDS011;39219;53.678;9.856;2024-01-30T09:09:37;22.17;;;12.43;;
52838;SDS011;39219;53.678;9.856;2024-01-30T09:12:06;23.13;;;13.00;;
52838;SDS011;39219;53.678;9.856;2024-01-30T09:14:34;22.60;;;12.65;;
52838;SDS011;39219;53.678;9.856;2024-01-30T09:17:01;21.35;;;12.68;;
52838;SDS011;39219;53.678;9.856;2024-01-30T09:19:28;23.45;;;12.95;;
52838;SDS011;39219;53.678;9.856;2024-01-30T09:21:54;25.02;;;13.75;;
52838;SDS011;39219;53.678;9.856;2024-01-30T09:24:21;22.20;;;13.57;;
52838;SDS011;39219;53.678;9.856;2024-01-30T09:26:47;24.35;;;13.43;;
52838;SDS011;39219;53.678;9.856;2024-01-30T09:29:15;22.48;;;12.45;;
52838;SDS011;39219;53.678;9.856;2024-01-30T09:31:42;24.52;;;13.48;;
52838;SDS011;39219;53.678;9.856;2024-01-30T09:34:09;23.63;;;13.18;;
52838;SDS011;39219;53.678;9.856;2024-01-30T09:36:35;25.27;;;13.25;;
52838;SDS011;39219;53.678;9.856;2024-01-30T09:39:02;23.35;;;13.15;;
52838;SDS011;39219;53.678;9.856;2024-01-30T09:41:29;23.65;;;13.25;;
52838;SDS011;39219;53.678;9.856;2024-01-30T09:43:59;22.92;;;13.10;;
52838;SDS011;39219;53.678;9.856;2024-01-30T09:46:29;22.65;;;12.93;;
52838;SDS011;39219;53.678;9.856;2024-01-30T09:48:58;25.13;;;12.80;;
52838;SDS011;39219;53.678;9.856;2024-01-30T09:51:24;23.95;;;13.10;;
52838;SDS011;39219;53.678;9.856;2024-01-30T09:53:52;25.45;;;14.05;;
52838;SDS011;39219;53.678;9.856;2024-01-30T09:56:20;23.30;;;13.57;;
52838;SDS011;39219;53.678;9.856;2024-01-30T09:58:47;24.02;;;12.85;;
52838;SDS011;39219;53.678;9.856;2024-01-30T10:01:14;20.77;;;12.68;;
52838;SDS011;39219;53.678;9.856;2024-01-30T10:03:45;21.58;;;12.85;;
52838;SDS011;39219;53.678;9.856;2024-01-30T10:06:11;20.02;;;12.27;;
52838;SDS011;39219;53.678;9.856;2024-01-30T10:08:38;22.15;;;12.50;;
52838;SDS011;39219;53.678;9.856;2024-01-30T10:11:05;22.58;;;12.57;;
52838;SDS011;39219;53.678;9.856;2024-01-30T10:13:31;19.77;;;11.88;;
52838;SDS011;39219;53.678;9.856;2024-01-30T10:15:58;20.45;;;11.93;;
52838;SDS011;39219;53.678;9.856;2024-01-30T10:18:28;21.80;;;12.25;;
52838;SDS011;39219;53.678;9.856;2024-01-30T10:20:56;19.45;;;11.65;;
52838;SDS011;39219;53.678;9.856;2024-01-30T10:23:22;18.42;;;11.48;;
52838;SDS011;39219;53.678;9.856;2024-01-30T10:25:49;20.38;;;11.80;;
52838;SDS011;39219;53.678;9.856;2024-01-30T10:28:17;18.35;;;11.70;;
52838;SDS011;39219;53.678;9.856;2024-01-30T10:30:43;19.13;;;11.23;;
52838;SDS011;39219;53.678;9.856;2024-01-30T10:33:09;19.30;;;11.00;;
52838;SDS011;39219;53.678;9.856;2024-01-30T10:35:36;20.63;;;10.77;;
52838;SDS011;39219;53.678;9.856;2024-01-30T10:38:04;17.75;;;10.48;;
52838;SDS011;39219;53.678;9.856;2024-01-30T10:40:34;19.65;;;11.00;;
52838;SDS011;39219;53.678;9.856;2024-01-30T10:43:03;17.25;;;10.45;;
52838;SDS011;39219;53.678;9.856;2024-01-30T10:45:30;21.52;;;11.93;;
52838;SDS011;39219;53.678;9.856;2024-01-30T10:47:57;19.83;;;11.50;;
52838;SDS011;39219;53.678;9.856;2024-01-30T10:50:25;19.88;;;11.27;;
52838;SDS011;39219;53.678;9.856;2024-01-30T10:52:53;20.75;;;11.38;;
52838;SDS011;39219;53.678;9.856;2024-01-30T10:55:22;18.90;;;11.23;;
52838;SDS011;39219;53.678;9.856;2024-01-30T10:57:49;19.80;;;11.05;;
52838;SDS011;39219;53.678;9.856;2024-01-30T11:00:16;17.55;;;10.18;;
52838;SDS011;39219;53.678;9.856;2024-01-30T11:02:47;18.30;;;10.52;;
52838;SDS011;39219;53.678;9.856;2024-01-30T11:05:14;19.55;;;10.80;;
52838;SDS011;39219;53.678;9.856;2024-01-30T11:07:49;20.67;;;10.68;;
52838;SDS011;39219;53.678;9.856;2024-01-30T11:10:15;19.15;;;10.70;;
52838;SDS011;39219;53.678;9.856;2024-01-30T11:12:43;18.52;;;10.93;;
52838;SDS011;39219;53.678;9.856;2024-01-30T11:15:13;19.45;;;10.63;;
52838;SDS011;39219;53.678;9.856;2024-01-30T11:17:41;18.77;;;10.68;;
52838;SDS011;39219;53.678;9.856;2024-01-30T11:20:09;19.27;;;10.93;;
52838;SDS011;39219;53.678;9.856;2024-01-30T11:22:37;19.02;;;10.73;;
52838;SDS011;39219;53.678;9.856;2024-01-30T11:25:10;19.65;;;10.50;;
52838;SDS011;39219;53.678;9.856;2024-01-30T11:27:37;17.88;;;10.55;;
52838;SDS011;39219;53.678;9.856;2024-01-30T11:30:06;17.05;;;10.65;;
52838;SDS011;39219;53.678;9.856;2024-01-30T11:32:34;18.20;;;10.63;;
52838;SDS011;39219;53.678;9.856;2024-01-30T11:35:00;22.65;;;10.93;;
52838;SDS011;39219;53.678;9.856;2024-01-30T11:37:30;17.60;;;10.75;;
52838;SDS011;39219;53.678;9.856;2024-01-30T11:39:57;16.90;;;10.50;;
52838;SDS011;39219;53.678;9.856;2024-01-30T11:42:24;17.00;;;10.27;;
52838;SDS011;39219;53.678;9.856;2024-01-30T11:44:52;19.65;;;10.27;;
52838;SDS011;39219;53.678;9.856;2024-01-30T11:47:20;17.17;;;9.98;;
52838;SDS011;39219;53.678;9.856;2024-01-30T11:49:46;17.85;;;10.38;;
52838;SDS011;39219;53.678;9.856;2024-01-30T11:52:13;16.92;;;9.90;;
52838;SDS011;39219;53.678;9.856;2024-01-30T11:54:40;15.93;;;10.30;;
52838;SDS011;39219;53.678;9.856;2024-01-30T11:57:06;18.42;;;10.50;;
52838;SDS011;39219;53.678;9.856;2024-01-30T11:59:33;20.38;;;10.65;;
52838;SDS011;39219;53.678;9.856;2024-01-30T12:02:00;17.73;;;10.13;;
52838;SDS011;39219;53.678;9.856;2024-01-30T12:04:29;18.33;;;10.43;;
52838;SDS011;39219;53.678;9.856;2024-01-30T12:06:55;17.60;;;10.50;;
52838;SDS011;39219;53.678;9.856;2024-01-30T12:09:22;17.73;;;10.55;;
52838;SDS011;39219;53.678;9.856;2024-01-30T12:11:48;18.60;;;10.55;;
52838;SDS011;39219;53.678;9.856;2024-01-30T12:14:16;15.25;;;9.73;;
52838;SDS011;39219;53.678;9.856;2024-01-30T12:16:43;18.60;;;10.00;;
52838;SDS011;39219;53.678;9.856;2024-01-30T12:19:09;20.85;;;10.65;;
52838;SDS011;39219;53.678;9.856;2024-01-30T12:21:38;18.05;;;10.35;;
52838;SDS011;39219;53.678;9.856;2024-01-30T12:24:05;19.38;;;10.80;;
52838;SDS011;39219;53.678;9.856;2024-01-30T12:26:32;19.15;;;10.10;;
52838;SDS011;39219;53.678;9.856;2024-01-30T12:28:59;17.60;;;10.38;;
52838;SDS011;39219;53.678;9.856;2024-01-30T12:31:26;18.67;;;10.27;;
52838;SDS011;39219;53.678;9.856;2024-01-30T12:33:53;16.35;;;9.68;;
52838;SDS011;39219;53.678;9.856;2024-01-30T12:36:20;19.10;;;10.63;;
52838;SDS011;39219;53.678;9.856;2024-01-30T12:38:48;19.23;;;10.55;;
52838;SDS011;39219;53.678;9.856;2024-01-30T12:41:15;23.45;;;10.65;;
52838;SDS011;39219;53.678;9.856;2024-01-30T12:43:41;18.02;;;9.90;;
52838;SDS011;39219;53.678;9.856;2024-01-30T12:46:08;19.92;;;10.68;;
52838;SDS011;39219;53.678;9.856;2024-01-30T12:48:34;18.90;;;10.85;;
52838;SDS011;39219;53.678;9.856;2024-01-30T12:51:01;17.30;;;10.20;;
52838;SDS011;39219;53.678;9.856;2024-01-30T12:53:27;18.98;;;10.50;;
52838;SDS011;39219;53.678;9.856;2024-01-30T12:55:55;17.65;;;10.25;;
52838;SDS011;39219;53.678;9.856;2024-01-30T12:58:22;17.25;;;10.77;;
52838;SDS011;39219;53.678;9.856;2024-01-30T13:00:49;18.88;;;10.90;;
52838;SDS011;39219;53.678;9.856;2024-01-30T13:03:15;18.08;;;10.30;;
52838;SDS011;39219;53.678;9.856;2024-01-30T13:05:42;19.17;;;10.50;;
52838;SDS011;39219;53.678;9.856;2024-01-30T13:08:08;18.83;;;10.65;;
52838;SDS011;39219;53.678;9.856;2024-01-30T13:10:35;18.02;;;10.70;;
52838;SDS011;39219;53.678;9.856;2024-01-30T13:13:03;18.27;;;10.75;;
52838;SDS011;39219;53.678;9.856;2024-01-30T13:15:29;17.38;;;10.25;;
52838;SDS011;39219;53.678;9.856;2024-01-30T13:17:56;18.23;;;10.50;;
52838;SDS011;39219;53.678;9.856;2024-01-30T13:20:22;18.90;;;10.63;;
52838;SDS011;39219;53.678;9.856;2024-01-30T13:22:49;20.10;;;10.85;;
52838;SDS011;39219;53.678;9.856;2024-01-30T13:25:15;17.80;;;10.55;;
52838;SDS011;39219;53.678;9.856;2024-01-30T13:27:42;20.20;;;10.38;;
52838;SDS011;39219;53.678;9.856;2024-01-30T13:30:10;20.27;;;11.00;;
52838;SDS011;39219;53.678;9.856;2024-01-30T13:32:37;16.55;;;9.70;;
52838;SDS011;39219;53.678;9.856;2024-01-30T13:35:04;20.13;;;10.68;;
52838;SDS011;39219;53.678;9.856;2024-01-30T13:37:30;18.25;;;10.27;;
52838;SDS011;39219;53.678;9.856;2024-01-30T13:39:57;19.08;;;10.88;;
52838;SDS011;39219;53.678;9.856;2024-01-30T13:42:23;17.30;;;10.57;;
52838;SDS011;39219;53.678;9.856;2024-01-30T13:44:50;17.83;;;10.55;;
52838;SDS011;39219;53.678;9.856;2024-01-30T13:47:18;18.15;;;10.75;;
52838;SDS011;39219;53.678;9.856;2024-01-30T13:49:46;17.65;;;10.30;;
52838;SDS011;39219;53.678;9.856;2024-01-30T13:52:13;19.08;;;10.68;;
52838;SDS011;39219;53.678;9.856;2024-01-30T13:54:39;17.75;;;10.40;;
52838;SDS011;39219;53.678;9.856;2024-01-30T13:57:06;17.70;;;10.48;;
52838;SDS011;39219;53.678;9.856;2024-01-30T13:59:33;19.25;;;10.85;;
52838;SDS011;39219;53.678;9.856;2024-01-30T14:02:00;19.75;;;10.73;;
52838;SDS011;39219;53.678;9.856;2024-01-30T14:04:27;18.80;;;10.60;;
52838;SDS011;39219;53.678;9.856;2024-01-30T14:06:54;19.80;;;10.88;;
52838;SDS011;39219;53.678;9.856;2024-01-30T14:09:20;18.40;;;10.27;;
52838;SDS011;39219;53.678;9.856;2024-01-30T14:11:47;21.52;;;10.98;;
52838;SDS011;39219;53.678;9.856;2024-01-30T14:14:13;18.40;;;10.05;;
52838;SDS011;39219;53.678;9.856;2024-01-30T14:16:40;19.52;;;11.27;;
52838;SDS011;39219;53.678;9.856;2024-01-30T14:19:06;16.42;;;10.63;;
52838;SDS011;39219;53.678;9.856;2024-01-30T14:21:34;17.38;;;10.15;;
52838;SDS011;39219;53.678;9.856;2024-01-30T14:24:02;17.40;;;10.10;;